Time;durP1;ratioP1;P1;durP2;ratioP2;P2;SDS_P1;SDS_P2;PMS_P1;PMS_P2;Temp;Humidity;BMP_temperature;BMP_pressure;BME280_temperature;BME280_humidity;BME280_pressure;Samples;Min_cycle;Max_cycle;Signal;HPM_P1;HPM_P2
2023/02/16 00:00:18;;;;;;;1999.90;999.90;;;;;;;-1.13;100.00;99086.09;5030845;28;20022;-85
2023/02/16 00:02:44;;;;;;;1999.90;999.90;;;;;;;-0.97;100.00;99100.31;5032068;28;20030;-86
2023/02/16 00:05:31;;;;;;;1999.90;999.90;;;;;;;-0.83;100.00;99105.56;5031810;28;20033;-84
2023/02/16 00:07:58;;;;;;;1999.90;999.90;;;;;;;-0.93;100.00;99093.50;5033490;28;20022;-86
2023/02/16 00:10:28;;;;;;;1999.90;999.90;;;;;;;-0.76;100.00;99105.63;5032682;28;20042;-85
2023/02/16 00:15:38;;;;;;;1999.90;999.90;;;;;;;-1.03;100.00;99076.91;5035504;28;20040;-86
2023/02/16 00:18:14;;;;;;;1999.90;999.90;;;;;;;-0.88;100.00;99099.13;5020219;28;20041;-85
2023/02/16 00:20:40;;;;;;;1999.90;999.90;;;;;;;-0.92;100.00;99095.16;5037442;28;20041;-87
2023/02/16 00:23:05;;;;;;;1999.90;999.90;;;;;;;-0.89;100.00;99084.88;5036664;28;20082;-87
2023/02/16 00:25:31;;;;;;;1999.90;999.90;;;;;;;-0.87;100.00;99092.72;5037266;28;20114;-86
2023/02/16 00:27:57;;;;;;;1999.90;999.90;;;;;;;-0.95;100.00;99092.88;5036687;28;20012;-86
2023/02/16 00:30:23;;;;;;;1999.90;999.90;;;;;;;-0.97;100.00;99101.09;5019801;28;20048;-84
2023/02/16 00:32:48;;;;;;;1999.90;999.90;;;;;;;-1.09;100.00;99090.06;5037295;28;20081;-86
2023/02/16 00:35:16;;;;;;;1999.90;999.90;;;;;;;-1.15;100.00;99088.16;5037049;28;20020;-86
2023/02/16 00:37:41;;;;;;;1999.90;999.90;;;;;;;-1.18;100.00;99091.22;5019923;28;20014;-87
2023/02/16 00:40:08;;;;;;;1999.90;999.90;;;;;;;-1.26;100.00;99072.59;5019095;28;20048;-86
2023/02/16 00:42:34;;;;;;;1999.90;999.90;;;;;;;-1.01;100.00;99102.53;5036027;28;20002;-86
2023/02/16 00:45:00;;;;;;;1999.90;999.90;;;;;;;-0.88;100.00;99107.19;5036792;28;20002;-87
2023/02/16 00:47:36;;;;;;;1999.90;999.90;;;;;;;-1.05;100.00;99108.47;5003911;28;20028;-85
2023/02/16 00:50:06;;;;;;;1999.90;999.90;;;;;;;-1.05;100.00;99100.41;5036626;28;20036;-84
2023/02/16 00:52:41;;;;;;;1999.90;999.90;;;;;;;-1.02;100.00;99090.13;5036539;28;20021;-88
2023/02/16 00:55:13;;;;;;;1999.90;999.90;;;;;;;-1.16;100.00;99078.44;5019614;28;20005;-85
2023/02/16 00:58:02;;;;;;;1999.90;999.90;;;;;;;-1.10;100.00;99088.41;5036604;28;20037;-85
2023/02/16 01:00:36;;;;;;;1999.90;999.90;;;;;;;-1.52;100.00;99029.41;5036286;28;20052;-86
2023/02/16 01:03:07;;;;;;;1999.90;999.90;;;;;;;-1.25;100.00;99082.28;5019046;28;20057;-84
2023/02/16 01:05:33;;;;;;;1999.90;999.90;;;;;;;-1.70;100.00;99015.63;5018878;28;20034;-86
2023/02/16 01:13:31;;;;;;;1999.90;999.90;;;;;;;-1.71;100.00;99011.25;5035721;28;20063;-85
2023/02/16 01:15:57;;;;;;;1999.90;999.90;;;;;;;-1.86;100.00;98999.78;5018168;28;20037;-85
2023/02/16 01:18:23;;;;;;;1999.90;999.90;;;;;;;-1.71;100.00;99040.75;5017131;28;20065;-86
2023/02/16 01:20:51;;;;;;;1999.90;999.90;;;;;;;-1.60;100.00;99058.22;5033193;28;20029;-86
2023/02/16 01:23:18;;;;;;;1999.90;999.90;;;;;;;-1.82;100.00;99038.59;5034181;28;20030;-83
2023/02/16 01:25:44;;;;;;;1999.90;999.90;;;;;;;-1.97;100.00;99013.69;5035424;28;20025;-87
2023/02/16 01:28:19;;;;;;;1999.90;999.90;;;;;;;-1.86;100.00;99035.44;5016424;28;20026;-86
2023/02/16 01:30:45;;;;;;;1999.90;999.90;;;;;;;-1.89;100.00;99032.31;5033673;28;20065;-85
2023/02/16 01:33:11;;;;;;;1999.90;999.90;;;;;;;-1.98;100.00;98998.63;5034549;28;20053;-84
2023/02/16 01:35:37;;;;;;;1999.90;999.90;;;;;;;-1.75;100.00;99021.53;5035708;28;20034;-81
2023/02/16 01:38:03;;;;;;;1999.90;999.90;;;;;;;-1.88;100.00;99013.34;5033607;28;20018;-85
2023/02/16 01:40:31;;;;;;;1999.90;999.90;;;;;;;-1.55;100.00;99075.38;5031745;28;20042;-84
2023/02/16 01:43:11;;;;;;;1999.90;999.90;;;;;;;-1.91;100.00;99012.94;5015712;28;20034;-83
2023/02/16 01:45:41;;;;;;;1999.90;999.90;;;;;;;-1.89;100.00;99005.50;5032203;28;20026;-83
2023/02/16 01:48:21;;;;;;;1999.90;999.90;;;;;;;-1.67;100.00;99020.59;5030899;28;20037;-83
2023/02/16 01:51:01;;;;;;;1999.90;999.90;;;;;;;-1.52;100.00;99052.72;5030702;28;20034;-84
2023/02/16 01:53:37;;;;;;;1999.90;999.90;;;;;;;-1.59;100.00;99046.44;5030893;28;20101;-84
2023/02/16 01:56:14;;;;;;;1999.90;999.90;;;;;;;-1.57;100.00;99053.28;5014631;28;20060;-84
2023/02/16 01:58:47;;;;;;;1999.90;999.90;;;;;;;-1.48;100.00;99044.09;5014764;28;20102;-84
2023/02/16 02:01:43;;;;;;;1999.90;999.90;;;;;;;-1.52;100.00;99040.13;5014489;28;20072;-84
2023/02/16 02:07:01;;;;;;;1999.90;999.90;;;;;;;-1.63;100.00;99024.56;5030778;28;20033;-85
2023/02/16 02:09:50;;;;;;;1999.90;999.90;;;;;;;-1.52;100.00;99029.41;5010992;28;20060;-84
2023/02/16 02:12:41;;;;;;;1999.90;999.90;;;;;;;-1.66;100.00;99027.63;5010220;28;20057;-84
2023/02/16 02:15:08;;;;;;;1999.90;999.90;;;;;;;-1.78;100.00;99021.91;5028662;28;20103;-84
2023/02/16 02:17:33;;;;;;;1999.90;999.90;;;;;;;-1.67;100.00;99031.31;5026759;28;20030;-84
2023/02/16 02:20:22;;;;;;;1999.90;999.90;;;;;;;-1.72;100.00;99029.19;5010761;28;20010;-83
2023/02/16 02:25:56;;;;;;;;;;;;;;;-1.73;100.00;99029.41;5025321;28;20068;-82
2023/02/16 02:28:39;;;;;;;1999.90;999.90;;;;;;;-1.64;100.00;99025.56;5023402;28;19984;-84
2023/02/16 02:31:13;;;;;;;1999.90;999.90;;;;;;;-1.68;100.00;99025.13;5023962;28;20018;-83
2023/02/16 02:33:52;;;;;;;1999.90;999.90;;;;;;;-1.80;100.00;99005.22;5027146;28;20037;-84
2023/02/16 02:36:28;;;;;;;1999.90;999.90;;;;;;;-1.74;100.00;99011.66;5009810;28;20021;-83
2023/02/16 02:38:57;;;;;;;1999.90;999.90;;;;;;;-1.78;100.00;99021.91;5011424;28;20050;-83
2023/02/16 02:44:20;;;;;;;1999.90;999.90;;;;;;;-1.72;100.00;99014.97;5028707;28;20091;-82
2023/02/16 02:46:45;;;;;;;1999.90;999.90;;;;;;;-1.89;100.00;99009.03;5010846;28;20044;-83
2023/02/16 02:49:11;;;;;;;1999.90;999.90;;;;;;;-1.94;100.00;99005.25;5027872;28;20054;-81
2023/02/16 02:51:39;;;;;;;1999.90;999.90;;;;;;;-1.96;100.00;99015.31;5029038;28;20026;-83
2023/02/16 03:02:34;;;;;;;1999.90;999.90;;;;;;;-1.91;100.00;98991.47;5030799;28;20036;-84
2023/02/16 03:05:02;;;;;;;1999.90;999.90;;;;;;;-1.81;100.00;99008.06;5007858;28;20022;-85
2023/02/16 03:07:47;;;;;;;1999.90;999.90;;;;;;;-1.76;100.00;99022.56;5024828;28;20491;-82
2023/02/16 03:13:25;;;;;;;1999.90;999.90;;;;;;;-1.70;100.00;99007.56;5024635;28;20041;-81
2023/02/16 03:15:55;;;;;;;1999.90;999.90;;;;;;;-1.66;100.00;99006.97;5023602;28;20052;-82
2023/02/16 03:29:30;;;;;;;1999.90;999.90;;;;;;;-1.70;100.00;99018.31;5024466;28;20037;-82
2023/02/16 03:31:56;;;;;;;1999.90;999.90;;;;;;;-1.70;100.00;98999.53;5007298;28;20431;-83
2023/02/16 03:34:23;;;;;;;1999.90;999.90;;;;;;;-1.67;100.00;99009.88;5007420;28;20064;-83
2023/02/16 03:36:53;;;;;;;1999.90;999.90;;;;;;;-1.59;100.00;99015.09;5005930;28;20022;-83
2023/02/16 03:39:19;;;;;;;1999.90;999.90;;;;;;;-1.75;100.00;98994.72;5003187;28;20052;-83
2023/02/16 03:41:48;;;;;;;1999.90;999.90;;;;;;;-1.76;100.00;98990.41;5003575;28;20022;-82
2023/02/16 03:44:14;;;;;;;1999.90;999.90;;;;;;;-1.74;100.00;99014.31;5004482;28;20013;-84
2023/02/16 03:46:40;;;;;;;1999.90;999.90;;;;;;;-1.68;100.00;99008.19;5019441;28;20030;-84
2023/02/16 03:49:05;;;;;;;1999.90;999.90;;;;;;;-1.73;100.00;99003.44;5020974;28;20026;-83
2023/02/16 03:51:31;;;;;;;1999.90;999.90;;;;;;;-1.73;100.00;98978.47;5015191;28;20121;-83
2023/02/16 03:53:56;;;;;;;1999.90;999.90;;;;;;;-1.64;100.00;99009.50;5019613;28;20033;-82
2023/02/16 03:56:21;;;;;;;1999.90;999.90;;;;;;;-1.75;100.00;98996.56;5021943;28;20010;-83
2023/02/16 03:58:47;;;;;;;1999.90;999.90;;;;;;;-1.64;100.00;99010.31;5003582;28;20046;-84
2023/02/16 04:01:12;;;;;;;1999.90;999.90;;;;;;;-1.64;100.00;99004.13;5003293;28;20057;-83
2023/02/16 04:03:38;;;;;;;1999.90;999.90;;;;;;;-1.67;100.00;98985.75;5002347;28;20020;-83
2023/02/16 04:06:03;;;;;;;1999.90;999.90;;;;;;;-1.72;100.00;98993.50;5002376;28;20482;-83
2023/02/16 04:08:29;;;;;;;1999.90;999.90;;;;;;;-1.64;100.00;99012.16;5018730;28;20026;-83
2023/02/16 04:10:56;;;;;;;1999.90;999.90;;;;;;;-1.66;100.00;98998.13;5017402;28;20022;-83
2023/02/16 04:13:22;;;;;;;1999.90;999.90;;;;;;;-1.64;100.00;99010.31;5018503;28;20525;-85
2023/02/16 04:15:47;;;;;;;1999.90;999.90;;;;;;;-1.79;100.00;98998.00;5018428;28;20014;-84
2023/02/16 04:18:13;;;;;;;1999.90;999.90;;;;;;;-1.96;100.00;98983.16;5000705;28;20021;-84
2023/02/16 04:20:38;;;;;;;1999.90;999.90;;;;;;;-1.79;100.00;98993.47;5000614;28;20029;-84
2023/02/16 04:23:04;;;;;;;1999.90;999.90;;;;;;;-1.81;100.00;98978.56;5000179;28;20014;-84
2023/02/16 04:25:29;;;;;;;1999.90;999.90;;;;;;;-1.67;100.00;98993.78;5017231;28;20104;-83
2023/02/16 04:27:55;;;;;;;1999.90;999.90;;;;;;;-1.71;100.00;98997.84;5001870;28;20038;-84
2023/02/16 04:30:24;;;;;;;1999.90;999.90;;;;;;;-1.74;100.00;99000.94;5022241;28;20037;-86
2023/02/16 04:32:49;;;;;;;1999.90;999.90;;;;;;;-1.80;100.00;99007.88;5017226;28;20057;-84
2023/02/16 04:35:15;;;;;;;1999.90;999.90;;;;;;;-1.85;100.00;98996.09;4998105;28;20030;-82
2023/02/16 04:37:41;;;;;;;1999.90;999.90;;;;;;;-1.80;100.00;98991.81;4998249;28;20112;-84
2023/02/16 04:40:09;;;;;;;1999.90;999.90;;;;;;;-1.86;100.00;98967.59;4999108;28;20104;-82
2023/02/16 04:42:35;;;;;;;1999.90;999.90;;;;;;;-1.59;100.00;98985.59;5018024;28;20040;-83
2023/02/16 04:45:00;;;;;;;1999.90;999.90;;;;;;;-1.54;100.00;98983.19;5021560;28;20026;-82
2023/02/16 04:47:26;;;;;;;1999.90;999.90;;;;;;;-1.39;100.00;98994.66;4999112;28;20029;-84
2023/02/16 04:49:52;;;;;;;1999.90;999.90;;;;;;;-1.38;100.00;98993.63;5016566;28;20371;-84
2023/02/16 04:52:18;;;;;;;1999.90;999.90;;;;;;;-1.31;100.00;99002.56;5015537;28;20055;-81
2023/02/16 04:54:43;;;;;;;1999.90;999.90;;;;;;;-1.35;100.00;98987.91;5016078;28;20022;-83
2023/02/16 04:57:10;;;;;;;1999.90;999.90;;;;;;;-1.34;100.00;99002.09;4997451;28;20434;-83
2023/02/16 04:59:35;;;;;;;1999.90;999.90;;;;;;;-1.37;100.00;98997.97;5015388;28;20097;-84
2023/02/16 05:02:01;;;;;;;1999.90;999.90;;;;;;;-1.42;100.00;98995.03;4985369;28;20036;-84
2023/02/16 05:04:27;;;;;;;1999.90;999.90;;;;;;;-1.42;100.00;99000.41;4995301;28;20050;-84
2023/02/16 05:06:52;;;;;;;1999.90;999.90;;;;;;;-1.35;100.00;99003.16;5000162;28;20034;-81
2023/02/16 05:09:19;;;;;;;1999.90;999.90;;;;;;;-1.22;100.00;98996.03;4999361;28;20034;-81
2023/02/16 05:14:40;;;;;;;1999.90;999.90;;;;;;;-1.34;100.00;98994.06;4994859;28;20164;-83
2023/02/16 05:17:17;;;;;;;1999.90;999.90;;;;;;;-1.43;100.00;98992.53;5011183;28;20026;-82
2023/02/16 05:19:48;;;;;;;1999.90;999.90;;;;;;;-1.37;100.00;98997.13;4997190;28;20045;-84
2023/02/16 05:22:14;;;;;;;1999.90;999.90;;;;;;;-1.28;100.00;98999.47;4997206;28;20057;-80
2023/02/16 05:24:41;;;;;;;1999.90;999.90;;;;;;;-1.35;100.00;98981.69;4996269;28;20025;-79
2023/02/16 05:27:10;;;;;;;1999.90;999.90;;;;;;;-1.36;100.00;98996.94;4997270;28;20040;-83
2023/02/16 05:29:35;;;;;;;1999.90;999.90;;;;;;;-1.42;100.00;98987.00;5013973;28;20026;-83
2023/02/16 05:32:01;;;;;;;1999.90;999.90;;;;;;;-1.29;100.00;98997.84;5013322;28;20439;-81
2023/02/16 05:34:26;;;;;;;1999.90;999.90;;;;;;;-1.38;100.00;99007.03;5007890;28;20045;-83
2023/02/16 05:36:52;;;;;;;1999.90;999.90;;;;;;;-1.43;100.00;99004.09;4993068;28;20514;-81
2023/02/16 05:39:18;;;;;;;1999.90;999.90;;;;;;;-1.38;100.00;99008.91;4995328;28;20492;-85
2023/02/16 05:41:43;;;;;;;1999.90;999.90;;;;;;;-1.43;100.00;99001.44;4996206;28;20030;-82
2023/02/16 05:44:10;;;;;;;1999.90;999.90;;;;;;;-1.29;100.00;99013.94;4997282;28;20114;-83
2023/02/16 05:46:38;;;;;;;1999.90;999.90;;;;;;;-1.36;100.00;98996.94;5014221;28;20065;-81
2023/02/16 05:49:05;;;;;;;1999.90;999.90;;;;;;;-1.34;100.00;98997.56;5013007;28;20026;-84
2023/02/16 05:51:31;;;;;;;1999.90;999.90;;;;;;;-1.53;100.00;98995.56;5014220;28;20032;-85
2023/02/16 05:53:57;;;;;;;1999.90;999.90;;;;;;;-1.34;100.00;99016.34;5004694;28;20018;-74
2023/02/16 05:56:23;;;;;;;1999.90;999.90;;;;;;;-1.47;100.00;99010.06;5010638;28;20022;-74
2023/02/16 05:58:48;;;;;;;1999.90;999.90;;;;;;;-1.43;100.00;99017.53;5015715;28;20073;-84
2023/02/16 06:01:14;;;;;;;1999.90;999.90;;;;;;;-1.53;100.00;98992.03;5011954;28;20088;-79
2023/02/16 06:03:40;;;;;;;1999.90;999.90;;;;;;;-1.41;100.00;99017.34;5011052;28;20022;-79
2023/02/16 06:06:06;;;;;;;1999.90;999.90;;;;;;;-1.34;100.00;99020.88;5011165;28;20497;-82
2023/02/16 06:08:32;;;;;;;1999.90;999.90;;;;;;;-1.33;100.00;99018.03;5016356;28;20033;-76
2023/02/16 06:10:57;;;;;;;1999.90;999.90;;;;;;;-1.24;100.00;99022.22;5001418;28;20042;-80
2023/02/16 06:13:23;;;;;;;1999.90;999.90;;;;;;;-1.36;100.00;99002.31;5014723;28;20026;-79
2023/02/16 06:15:54;;;;;;;1999.90;999.90;;;;;;;-1.30;100.00;99006.06;5014792;28;20025;-79
2023/02/16 06:18:19;;;;;;;1999.90;999.90;;;;;;;-1.22;100.00;99025.53;4996904;28;20606;-75
2023/02/16 06:20:45;;;;;;;1999.90;999.90;;;;;;;-1.15;100.00;99030.97;5018536;28;20029;-85
2023/02/16 06:23:12;;;;;;;1999.90;999.90;;;;;;;-1.30;100.00;99017.63;5016447;28;20022;-77
2023/02/16 06:25:41;;;;;;;1999.90;999.90;;;;;;;-1.32;100.00;99022.38;4997407;28;20116;-80
2023/02/16 06:28:06;;;;;;;1999.90;999.90;;;;;;;-1.11;100.00;99027.72;5014239;28;20041;-80
2023/02/16 06:30:34;;;;;;;1999.90;999.90;;;;;;;-1.00;100.00;99034.38;5014641;28;20053;-81
2023/02/16 06:32:59;;;;;;;1999.90;999.90;;;;;;;-0.92;100.00;99042.31;5014504;28;20053;-81
2023/02/16 06:35:25;;;;;;;1999.90;999.90;;;;;;;-0.88;100.00;99048.13;5018096;28;20112;-81
2023/02/16 06:37:50;;;;;;;1999.90;999.90;;;;;;;-0.97;100.00;99033.19;5003339;28;20026;-82
2023/02/16 06:40:16;;;;;;;1999.90;999.90;;;;;;;-0.90;100.00;99045.63;5018195;28;20049;-81
2023/02/16 06:42:41;;;;;;;1999.90;999.90;;;;;;;-0.96;100.00;99049.09;4997243;28;20022;-84
2023/02/16 06:45:08;;;;;;;1999.90;999.90;;;;;;;-0.97;100.00;99055.47;5014906;28;20480;-84
2023/02/16 06:47:35;;;;;;;1999.90;999.90;;;;;;;-0.93;100.00;99051.38;5014515;28;20033;-84
2023/02/16 06:50:01;;;;;;;1999.90;999.90;;;;;;;-0.87;100.00;99055.13;4997750;28;20489;-83
2023/02/16 06:52:27;;;;;;;1999.90;999.90;;;;;;;-0.80;100.00;99061.38;5016814;28;20026;-83
2023/02/16 06:54:52;;;;;;;1999.90;999.90;;;;;;;-0.96;100.00;99034.81;5018564;28;20037;-85
2023/02/16 06:57:18;;;;;;;1999.90;999.90;;;;;;;-0.83;100.00;99056.41;5021674;28;20029;-83
2023/02/16 06:59:43;;;;;;;1999.90;999.90;;;;;;;-0.85;100.00;99053.09;5005607;28;20037;-84
2023/02/16 07:02:09;;;;;;;1999.90;999.90;;;;;;;-0.83;100.00;99067.16;4998533;28;20034;-77
2023/02/16 07:04:35;;;;;;;1999.90;999.90;;;;;;;-0.92;100.00;99054.91;4998512;28;20092;-83
2023/02/16 07:07:01;;;;;;;1999.90;999.90;;;;;;;-0.72;100.00;99069.31;4987923;28;20586;-83
2023/02/16 07:09:26;;;;;;;1999.90;999.90;;;;;;;-0.99;100.00;99068.25;5006761;28;20034;-84
2023/02/16 07:11:51;;;;;;;1999.90;999.90;;;;;;;-0.83;100.00;99067.16;5013272;28;20022;-82
2023/02/16 07:14:17;;;;;;;1999.90;999.90;;;;;;;-0.78;100.00;99076.28;4993558;28;20038;-79
2023/02/16 07:16:42;;;;;;;1999.90;999.90;;;;;;;-0.61;100.00;99087.56;4991946;28;20053;-77
2023/02/16 07:19:08;;;;;;;1999.90;999.90;;;;;;;-0.58;100.00;99090.69;4992676;28;20029;-78
2023/02/16 07:21:33;;;;;;;1999.90;999.90;;;;;;;-0.61;100.00;99090.25;4997012;28;20057;-84
2023/02/16 07:23:59;;;;;;;1999.90;999.90;;;;;;;-0.86;100.00;99080.97;4999422;28;20033;-83
2023/02/16 07:26:24;;;;;;;1999.90;999.90;;;;;;;-0.75;100.00;99085.81;4996582;28;20434;-82
2023/02/16 07:28:50;;;;;;;1999.90;999.90;;;;;;;-0.62;100.00;99086.72;4995860;28;20014;-83
2023/02/16 07:31:16;;;;;;;1999.90;999.90;;;;;;;-0.69;100.00;99085.03;4996599;28;20058;-83
2023/02/16 07:33:42;;;;;;;1999.90;999.90;;;;;;;-0.63;100.00;99086.94;4996060;28;20491;-82
2023/02/16 07:36:08;;;;;;;1999.90;999.90;;;;;;;-1.10;100.00;99088.41;4996788;28;20053;-84
2023/02/16 07:38:34;;;;;;;1999.90;999.90;;;;;;;-1.11;100.00;99089.44;4995558;28;20026;-84
2023/02/16 07:41:00;;;;;;;1999.90;999.90;;;;;;;-0.83;100.00;99094.00;4995154;28;20032;-78
2023/02/16 07:43:25;;;;;;;1999.90;999.90;;;;;;;-0.65;100.00;99092.50;4993727;28;20051;-81
2023/02/16 07:45:51;;;;;;;1999.90;999.90;;;;;;;-0.49;100.00;99099.41;4993551;28;20111;-80
2023/02/16 07:48:17;;;;;;;1999.90;999.90;;;;;;;-0.43;100.00;99090.56;4993448;28;20046;-82
2023/02/16 07:50:42;;;;;;;1999.90;999.90;;;;;;;-0.41;100.00;99088.53;4993807;28;20086;-80
2023/02/16 07:53:08;;;;;;;1999.90;999.90;;;;;;;-0.42;100.00;99092.25;4977360;28;20089;-82
2023/02/16 07:55:41;;;;;;;1999.90;999.90;;;;;;;-0.21;100.00;99094.00;4995006;28;20030;-82
2023/02/16 07:58:07;;;;;;;1999.90;999.90;;;;;;;-0.19;100.00;99086.59;4994193;28;20045;-84
2023/02/16 08:00:32;;;;;;;1999.90;999.90;;;;;;;-0.08;100.00;99097.59;4993757;28;20026;-82
2023/02/16 08:02:58;;;;;;;1999.90;999.90;;;;;;;0.02;100.00;99093.72;4993874;28;20487;-81
2023/02/16 08:05:23;;;;;;;1999.90;999.90;;;;;;;0.12;100.00;99099.56;4993697;28;20027;-80
2023/02/16 08:07:49;;;;;;;1999.90;999.90;;;;;;;-0.03;100.00;99095.13;4993840;28;20031;-81
2023/02/16 08:10:14;;;;;;;1999.90;999.90;;;;;;;0.00;100.00;99091.25;4999165;28;20034;-85
2023/02/16 08:12:40;;;;;;;1999.90;999.90;;;;;;;0.18;100.00;99094.22;4999586;28;20030;-83
2023/02/16 08:15:06;;;;;;;1999.90;999.90;;;;;;;0.16;100.00;99095.44;5000701;28;20395;-83
2023/02/16 08:17:33;;;;;;;1999.90;999.90;;;;;;;0.20;100.00;99092.13;5002663;28;20077;-84
2023/02/16 08:19:59;;;;;;;1999.90;999.90;;;;;;;0.23;100.00;99090.91;5002802;28;20014;-85
2023/02/16 08:22:24;;;;;;;1999.90;999.90;;;;;;;-0.15;100.00;99098.59;5004397;28;20109;-83
2023/02/16 08:24:50;;;;;;;1999.90;999.90;;;;;;;0.18;100.00;99102.28;5008405;28;20020;-84
2023/02/16 08:27:15;;;;;;;1999.90;999.90;;;;;;;0.43;100.00;99105.25;5009944;28;20101;-84
2023/02/16 08:29:41;;;;;;;1999.90;999.90;;;;;;;0.44;100.00;99107.75;5009254;28;20030;-84
2023/02/16 08:32:09;;;;;;;1999.90;999.90;;;;;;;0.71;100.00;99102.44;5007506;28;20029;-84
2023/02/16 08:34:35;;;;;;;1999.90;999.90;;;;;;;0.73;100.00;99111.97;5001493;28;20057;-82
2023/02/16 08:37:01;;;;;;;1999.90;999.90;;;;;;;0.61;100.00;99108.22;4999786;28;20022;-83
2023/02/16 08:39:29;;;;;;;1999.90;999.90;;;;;;;0.87;100.00;99107.44;4995820;28;20058;-82
2023/02/16 08:41:55;;;;;;;1999.90;999.90;;;;;;;0.78;100.00;99109.50;4997537;28;20502;-83
2023/02/16 08:44:22;;;;;;;1999.90;999.90;;;;;;;0.92;100.00;99119.25;4998679;28;20030;-81
2023/02/16 08:46:49;;;;;;;1999.90;999.90;;;;;;;0.82;100.00;99123.38;5001627;28;20491;-82
2023/02/16 08:49:17;;;;;;;1999.90;999.90;;;;;;;0.78;100.00;99106.81;5002678;28;20023;-84
2023/02/16 08:51:46;;;;;;;1999.90;999.90;;;;;;;1.18;100.00;99118.47;5002513;28;20109;-82
2023/02/16 08:54:32;;;;;;;1999.90;999.90;;;;;;;1.00;100.00;99127.13;5000099;28;20085;-82
2023/02/16 08:56:58;;;;;;;1999.90;999.90;;;;;;;1.17;100.00;99118.66;4997646;28;20068;-84
2023/02/16 08:59:25;;;;;;;1999.90;999.90;;;;;;;1.07;100.00;99117.19;4999228;28;20050;-84
2023/02/16 09:01:50;;;;;;;1999.90;999.90;;;;;;;1.12;100.00;99110.38;4999864;28;20022;-83
2023/02/16 09:04:18;;;;;;;1999.90;999.90;;;;;;;1.49;100.00;99115.13;5000698;28;20049;-82
2023/02/16 09:06:45;;;;;;;1999.90;999.90;;;;;;;1.38;100.00;99113.06;5000328;28;20041;-82
2023/02/16 09:09:12;;;;;;;1999.90;999.90;;;;;;;1.50;100.00;99114.09;4999728;28;20026;-82
2023/02/16 09:11:37;;;;;;;1999.90;999.90;;;;;;;1.74;100.00;99108.03;4997515;28;20074;-84
2023/02/16 09:14:03;;;;;;;1999.90;999.90;;;;;;;1.94;100.00;99116.91;4989210;28;20034;-86
2023/02/16 09:16:33;;;;;;;1999.90;999.90;;;;;;;2.19;100.00;99116.22;5006201;28;20039;-84
2023/02/16 09:19:00;;;;;;;1999.90;999.90;;;;;;;1.97;100.00;99115.69;4999680;28;20038;-81
2023/02/16 09:21:26;;;;;;;1999.90;999.90;;;;;;;2.36;100.00;99117.41;4994756;28;20026;-81
2023/02/16 09:23:55;;;;;;;1999.90;999.90;;;;;;;2.48;100.00;99118.38;4993703;28;20372;-84
2023/02/16 09:26:22;;;;;;;1999.90;999.90;;;;;;;2.94;100.00;99116.28;4995426;28;20493;-81
2023/02/16 09:28:49;;;;;;;1999.90;999.90;;;;;;;3.24;100.00;99114.59;4997946;28;20534;-83
2023/02/16 09:31:24;;;;;;;1999.90;999.90;;;;;;;3.58;100.00;99112.44;4998899;28;20577;-83
2023/02/16 09:33:50;;;;;;;1999.90;999.90;;;;;;;4.18;100.00;99102.66;5000329;28;20030;-86
2023/02/16 09:36:17;;;;;;;1999.90;999.90;;;;;;;5.44;100.00;99121.56;4979929;28;20431;-83
2023/02/16 09:38:42;;;;;;;1999.90;999.90;;;;;;;5.89;100.00;99118.06;4996444;28;20026;-86
2023/02/16 09:41:37;;;;;;;1999.90;999.90;;;;;;;6.55;100.00;99121.44;4995342;28;20464;-85
2023/02/16 09:44:06;;;;;;;1999.90;999.90;;;;;;;7.15;100.00;99119.88;4993575;28;20061;-87
2023/02/16 09:46:32;;;;;;;1999.90;999.90;;;;;;;7.94;100.00;99115.19;5012303;28;20069;-85
2023/02/16 09:49:01;;;;;;;1999.90;999.90;;;;;;;8.99;100.00;99120.44;5011856;28;20038;-83
2023/02/16 09:51:31;;;;;;;1999.90;999.90;;;;;;;9.84;94.47;99119.56;5013804;28;20036;-84
2023/02/16 09:54:15;;;;;;;1999.90;999.90;;;;;;;9.06;97.33;99112.84;5012126;28;20041;-84
2023/02/16 09:56:51;;;;;;;1999.90;999.90;;;;;;;9.78;94.66;99129.63;5007244;28;20037;-87
2023/02/16 09:59:41;;;;;;;1999.90;999.90;;;;;;;9.82;86.48;99119.00;5011435;28;20034;-85
2023/02/16 10:02:40;;;;;;;1999.90;999.90;;;;;;;9.71;85.73;99126.28;5014706;28;20030;-86
2023/02/16 10:05:07;;;;;;;1999.90;999.90;;;;;;;10.24;81.75;99122.63;5015746;28;20078;-85
2023/02/16 10:07:44;;;;;;;1999.90;999.90;;;;;;;11.28;76.96;99126.03;5016516;28;20013;-87
2023/02/16 10:10:15;;;;;;;1999.90;999.90;;;;;;;12.00;71.32;99127.75;5016272;28;20021;-83
2023/02/16 10:12:47;;;;;;;1999.90;999.90;;;;;;;12.32;72.93;99117.28;5015871;28;20095;-86
2023/02/16 10:15:21;;;;;;;1999.90;999.90;;;;;;;13.10;68.58;99127.72;5016353;28;20018;-85
2023/02/16 10:17:53;;;;;;;1999.90;999.90;;;;;;;13.48;64.49;99121.47;5015081;28;20046;-85
2023/02/16 10:20:35;;;;;;;1999.90;999.90;;;;;;;12.73;65.56;99118.00;5014937;28;20007;-85
2023/02/16 10:23:38;;;;;;;1999.90;999.90;;;;;;;13.29;63.65;99113.06;5011275;28;20022;-88
2023/02/16 10:26:12;;;;;;;1999.90;999.90;;;;;;;12.10;68.39;99107.72;5013021;28;20038;-91
2023/02/16 10:28:48;;;;;;;1999.90;999.90;;;;;;;12.63;62.91;99109.78;5013015;28;20078;-86
2023/02/16 10:31:21;;;;;;;1999.90;999.90;;;;;;;12.73;61.36;99093.28;5013953;28;20022;-85
2023/02/16 10:34:11;;;;;;;1999.90;999.90;;;;;;;13.14;61.16;99102.16;5011029;28;20037;-90
2023/02/16 10:37:11;;;;;;;1999.90;999.90;;;;;;;12.79;60.79;99086.66;5010450;28;20010;-88
2023/02/16 10:39:57;;;;;;;1999.90;999.90;;;;;;;13.03;59.88;99091.50;5011198;28;20531;-87
2023/02/16 10:42:49;;;;;;;1999.90;999.90;;;;;;;11.96;62.71;99087.47;5013654;28;20022;-82
2023/02/16 10:45:38;;;;;;;1999.90;999.90;;;;;;;12.58;60.95;99092.53;5014504;28;20041;-87
2023/02/16 10:48:04;;;;;;;1999.90;999.90;;;;;;;12.91;60.56;99083.56;5012897;28;20081;-84
2023/02/16 10:50:42;;;;;;;1999.90;999.90;;;;;;;13.53;57.01;99088.44;5015368;28;20013;-85
2023/02/16 10:53:18;;;;;;;1999.90;999.90;;;;;;;13.32;56.78;99087.75;5017213;28;20018;-90
2023/02/16 10:55:44;;;;;;;1999.90;999.90;;;;;;;13.11;58.73;99072.50;5020718;28;20097;-87
2023/02/16 10:58:23;;;;;;;1999.90;999.90;;;;;;;13.41;57.50;99065.97;5019557;28;20031;-87
2023/02/16 11:01:00;;;;;;;1999.90;999.90;;;;;;;12.88;58.25;99068.50;5018722;28;20017;-87
2023/02/16 11:03:30;;;;;;;1999.90;999.90;;;;;;;13.73;55.84;99065.44;5019137;28;20002;-84
2023/02/16 11:06:11;;;;;;;1999.90;999.90;;;;;;;13.12;57.60;99063.19;5015785;28;20045;-91
2023/02/16 11:08:55;;;;;;;1999.90;999.90;;;;;;;13.21;57.62;99055.16;5008097;28;20022;-86
2023/02/16 11:11:24;;;;;;;1999.90;999.90;;;;;;;13.05;58.74;99048.91;4980698;28;20072;-83
2023/02/16 11:13:57;;;;;;;1999.90;999.90;;;;;;;13.03;58.26;99051.09;5000956;28;20026;-84
2023/02/16 11:16:25;;;;;;;1999.90;999.90;;;;;;;12.14;61.05;99046.56;5002834;28;20034;-86
2023/02/16 11:19:04;;;;;;;1999.90;999.90;;;;;;;12.30;61.83;99042.69;4999042;28;20363;-87
2023/02/16 11:22:01;;;;;;;1999.90;999.90;;;;;;;11.79;62.71;99038.41;4999413;28;20549;-82
2023/02/16 11:24:32;;;;;;;;;;;;;;;11.55;63.34;99038.13;5003676;28;20018;-86
2023/02/16 11:27:13;;;;;;;1999.90;999.90;;;;;;;11.31;65.21;99026.06;5001207;28;20398;-85
2023/02/16 11:29:39;;;;;;;1999.90;999.90;;;;;;;12.13;62.95;99027.63;5004892;28;20068;-86
2023/02/16 11:32:07;;;;;;;1999.90;999.90;;;;;;;13.29;58.75;99036.13;5001591;28;20030;-84
2023/02/16 11:34:45;;;;;;;1999.90;999.90;;;;;;;13.52;57.33;99029.06;4996089;28;20046;-89
2023/02/16 11:37:24;;;;;;;1999.90;999.90;;;;;;;13.54;57.60;99020.53;4997948;28;20038;-85
2023/02/16 11:39:52;;;;;;;1999.90;999.90;;;;;;;13.55;56.66;99023.00;4998854;28;20096;-91
2023/02/16 11:42:39;;;;;;;1999.90;999.90;;;;;;;12.98;58.17;99022.84;4999967;28;20030;-86